Stations météo

réclame
Mon MeteoGroup
Falsterbo A, Suède (2615): Température de l'air & dewpoint: 17.10.2018 12:00:00 - 23.10.2018 12:00:00 (CEST)Falsterbo A, Suède (2615): Vitesse du vent & gusts: 17.10.2018 12:00:00 - 23.10.2018 12:00:00 (CEST)Falsterbo A, Suède (2615): Direction du vent: 17.10.2018 12:00:00 - 23.10.2018 12:00:00 (CEST)Falsterbo A, Suède (2615): reduced air pressure: 17.10.2018 12:00:00 - 23.10.2018 12:00:00 (CEST)Falsterbo A, Suède (2615): Quantités de précipitations: 17.10.2018 12:00:00 - 23.10.2018 12:00:00 (CEST)
Date & Time tt [°C] td [°C] ff [km/h] ff [knt] fx [km/h] fx [knt] dd ppp [hPa] rr [mm]
23.10.2018 12:00:00 - - - - - - - - -
23.10.2018 11:00:00 12,0 7,7 60 33 81 44 WNW 1001,4 0,0
23.10.2018 10:00:00 12,0 8,7 60 32 81 44 W 1001,7 0,0
23.10.2018 09:00:00 11,0 8,9 58 32 75 40 W 1002,8 0,0
23.10.2018 08:00:00 10,7 8,3 55 30 - - W 1004,2 -
23.10.2018 07:00:00 10,5 8,1 53 29 72 39 W 1005,6 1,1
23.10.2018 06:00:00 10,5 8,1 51 28 71 38 W 1007,7 0,8
23.10.2018 05:00:00 10,3 7,7 54 29 71 38 W 1009,6 0,8
23.10.2018 04:00:00 10,2 7,4 53 29 68 37 WSW 1011,5 0,4
23.10.2018 03:00:00 10,4 6,2 51 28 65 35 WSW 1014,1 0,0
23.10.2018 02:00:00 10,7 4,6 50 27 65 35 W 1016,7 0,0
23.10.2018 01:00:00 10,1 5,1 45 24 55 30 WSW 1018,8 0,0
23.10.2018 00:00:00 9,5 4,5 42 23 55 30 W 1020,8 0,0
22.10.2018 23:00:00 9,6 4,2 43 23 55 30 W 1022,0 0,0
22.10.2018 22:00:00 9,5 4,3 44 24 54 29 W 1023,0 0,0
22.10.2018 21:00:00 9,7 4,1 39 21 47 26 W 1023,5 0,0
22.10.2018 20:00:00 10,2 3,9 35 19 48 26 W 1023,9 0,0
22.10.2018 19:00:00 10,7 3,9 40 21 54 29 W 1024,6 0,0
22.10.2018 18:00:00 10,9 3,7 37 20 - - WNW 1024,9 0,0
22.10.2018 17:00:00 11,3 3,6 42 23 - - WNW 1024,8 -
22.10.2018 16:00:00 11,4 3,7 44 24 58 31 WNW 1024,9 0,0
22.10.2018 15:00:00 11,3 3,3 46 25 61 33 NW 1024,6 0,0
22.10.2018 14:00:00 11,4 3,2 45 25 61 33 NW 1024,7 0,0
22.10.2018 13:00:00 11,4 3,2 47 25 58 31 NW 1024,1 0,0
22.10.2018 12:00:00 11,1 3,6 46 25 58 31 NW 1024,5 0,0
22.10.2018 11:00:00 11,0 4,5 44 24 57 31 NW 1024,2 0,0
22.10.2018 10:00:00 10,9 5,4 45 24 57 31 NW 1023,8 0,0
22.10.2018 09:00:00 10,7 6,8 38 20 51 28 WNW 1023,3 0,0
22.10.2018 08:00:00 10,9 6,3 39 21 51 28 NW 1022,5 0,0
22.10.2018 07:00:00 11,5 6,8 35 19 48 26 NW 1021,8 0,0
22.10.2018 06:00:00 11,9 8,4 37 20 46 25 NW 1021,5 0,0
22.10.2018 05:00:00 12,0 9,9 31 17 47 25 NW 1020,8 0,0
22.10.2018 04:00:00 12,1 10,2 29 16 47 25 WSW 1020,5 0,0
22.10.2018 03:00:00 12,6 9,6 35 19 51 28 WSW 1020,9 0,0
22.10.2018 02:00:00 12,6 9,6 33 18 51 28 WSW 1021,2 0,0
22.10.2018 01:00:00 12,7 9,7 41 22 49 26 WSW 1021,3 0,0
22.10.2018 00:00:00 12,9 9,7 27 15 36 19 WSW 1022,1 0,0
21.10.2018 23:00:00 12,8 9,8 28 15 36 19 SW 1022,2 0,0
21.10.2018 22:00:00 12,8 10,0 24 13 35 19 SW 1022,6 0,0
21.10.2018 21:00:00 12,7 10,1 27 14 33 18 SW 1022,8 0,0
21.10.2018 20:00:00 12,4 9,9 25 13 32 17 SSW 1023,3 0,0
21.10.2018 19:00:00 12,2 9,9 23 13 32 17 SSW 1023,5 0,0
21.10.2018 18:00:00 12,1 9,8 24 13 35 19 SSW 1023,6 0,0
21.10.2018 17:00:00 12,0 9,6 26 14 35 19 SSW 1024,1 0,0
21.10.2018 16:00:00 13,0 10,2 24 13 32 17 SSW 1024,4 0,0
21.10.2018 15:00:00 12,4 9,0 24 13 32 17 SW 1025,1 0,0
21.10.2018 14:00:00 12,8 9,1 21 11 32 17 SSW 1025,6 0,0
21.10.2018 13:00:00 12,9 9,0 22 12 32 17 SSW 1026,1 0,0
21.10.2018 12:00:00 12,2 8,9 19 11 27 14 SW 1026,8 0,0
21.10.2018 11:00:00 12,0 9,0 19 11 27 14 SW 1027,0 0,0
21.10.2018 10:00:00 11,3 8,3 17 9 22 12 SW 1026,8 0,0
21.10.2018 09:00:00 10,9 7,6 16 9 21 11 WSW 1027,0 0,0
21.10.2018 08:00:00 9,9 7,1 14 8 17 9 SW 1026,5 0,0
21.10.2018 07:00:00 9,9 6,2 13 7 17 9 W 1026,8 0,0
21.10.2018 06:00:00 10,1 6,6 12 7 19 11 W 1026,9 0,0
21.10.2018 05:00:00 10,3 6,6 13 7 22 12 WNW 1027,0 0,0
21.10.2018 04:00:00 10,4 7,1 18 10 22 12 WNW 1027,0 0,0
21.10.2018 03:00:00 10,5 7,4 16 9 19 11 WNW 1027,0 0,0
21.10.2018 02:00:00 10,8 7,3 14 7 21 11 WNW 1026,9 0,0
21.10.2018 01:00:00 10,8 6,7 12 6 26 14 NW 1026,8 0,0
21.10.2018 00:00:00 11,1 6,8 19 10 26 14 NW 1027,0 0,0
20.10.2018 23:00:00 11,3 7,0 21 11 28 15 NW 1026,7 0,0
20.10.2018 22:00:00 11,5 7,0 22 12 28 15 NW 1026,6 0,0
20.10.2018 21:00:00 11,7 7,8 21 12 25 14 WNW 1026,6 0,0
20.10.2018 20:00:00 11,9 7,4 20 11 25 13 WNW 1026,5 0,0
20.10.2018 19:00:00 11,8 7,7 18 10 32 17 WNW 1026,1 0,0
20.10.2018 18:00:00 11,9 7,8 21 11 34 18 WNW 1025,9 0,0
20.10.2018 17:00:00 12,3 7,2 29 16 34 18 NW 1025,7 0,0
20.10.2018 16:00:00 13,2 8,1 23 12 27 15 NW 1025,4 0,0
20.10.2018 15:00:00 13,0 7,9 21 11 27 15 WNW 1025,4 0,0
20.10.2018 14:00:00 12,7 7,8 20 11 31 17 WNW 1025,3 0,0
20.10.2018 13:00:00 12,1 8,4 25 14 34 18 WNW 1025,3 0,0
20.10.2018 12:00:00 11,7 8,2 26 14 37 20 WNW 1025,1 0,0
20.10.2018 11:00:00 11,4 7,7 29 16 39 21 W 1024,9 0,0
20.10.2018 10:00:00 11,0 7,3 32 17 39 21 W 1024,7 0,0
20.10.2018 09:00:00 10,5 7,4 22 12 39 21 WSW 1024,5 0,2
20.10.2018 08:00:00 10,0 6,2 31 17 39 21 W 1024,9 0,0
20.10.2018 07:00:00 10,9 4,4 28 15 34 18 W 1024,4 0,0
20.10.2018 06:00:00 10,7 3,0 21 11 35 19 W 1024,5 0,0
20.10.2018 05:00:00 11,1 2,1 16 9 35 19 WNW 1024,2 0,0
20.10.2018 04:00:00 11,3 3,6 26 14 37 20 WNW 1024,4 0,0
20.10.2018 03:00:00 11,3 5,2 30 16 37 20 W 1024,8 0,0
20.10.2018 02:00:00 11,2 5,3 28 15 33 18 W 1024,6 0,0
20.10.2018 01:00:00 11,1 5,4 24 13 31 17 W 1024,7 0,0
20.10.2018 00:00:00 11,1 4,8 21 11 27 15 W 1024,8 0,0
19.10.2018 23:00:00 11,3 3,8 20 11 27 15 W 1024,8 0,0
19.10.2018 22:00:00 11,0 5,3 19 10 26 14 W 1024,9 0,0
19.10.2018 21:00:00 11,2 5,3 21 12 26 14 W 1025,0 0,0
19.10.2018 20:00:00 11,2 4,4 15 8 23 13 WNW 1024,5 0,0
19.10.2018 19:00:00 11,3 4,1 18 10 23 13 NW 1024,5 0,0
19.10.2018 18:00:00 11,1 4,3 17 9 23 13 NW 1024,2 0,0
19.10.2018 17:00:00 11,4 4,6 11 6 16 9 NW 1024,1 0,0
19.10.2018 16:00:00 11,2 5,1 10 6 17 9 W 1024,5 0,0
19.10.2018 15:00:00 11,8 5,4 14 8 17 9 W 1025,0 0,0
19.10.2018 14:00:00 11,9 6,2 13 7 - - WNW 1025,3 -
19.10.2018 13:00:00 11,9 6,2 13 7 16 9 W 1025,4 0,0
19.10.2018 12:00:00 11,1 6,0 12 7 16 9 W 1025,5 0,0
19.10.2018 11:00:00 11,3 5,8 11 6 16 9 W 1025,5 0,0
19.10.2018 10:00:00 10,6 5,8 11 6 17 9 WNW 1025,4 0,0
19.10.2018 09:00:00 10,3 5,1 12 6 19 11 NW 1025,2 0,0
19.10.2018 08:00:00 9,9 5,3 13 7 21 11 NW 1024,8 0,0
19.10.2018 07:00:00 9,9 6,2 17 9 21 11 NNW 1024,5 0,0
19.10.2018 06:00:00 - - - - 21 11 - - -
19.10.2018 05:00:00 10,0 6,2 16 9 20 11 NW 1024,3 0,0
19.10.2018 04:00:00 9,8 5,8 13 7 18 10 NNW 1024,5 0,0
19.10.2018 03:00:00 10,1 6,3 13 7 19 10 NNW 1024,5 0,0
19.10.2018 02:00:00 10,2 5,8 16 8 25 14 NNW 1024,6 0,0
19.10.2018 01:00:00 10,1 5,9 15 8 29 16 NNW 1024,6 0,0
19.10.2018 00:00:00 10,6 6,2 23 12 30 16 NNW 1024,7 0,0
18.10.2018 23:00:00 10,6 5,8 24 13 30 16 NNW 1024,6 0,0
18.10.2018 22:00:00 10,8 6,2 23 12 30 16 NNW 1024,4 0,0
18.10.2018 21:00:00 11,1 6,6 21 12 30 16 NNW 1023,7 0,0
18.10.2018 20:00:00 11,3 6,0 22 12 37 20 NNW 1023,6 0,0
18.10.2018 19:00:00 11,5 6,0 26 14 39 21 NNW 1023,2 0,0
18.10.2018 18:00:00 11,9 5,7 27 15 39 21 NNW 1022,6 0,0
18.10.2018 17:00:00 12,8 5,5 31 17 36 20 NNW 1022,3 0,0
18.10.2018 16:00:00 13,7 7,5 19 11 31 17 NNW 1021,9 0,0
18.10.2018 15:00:00 13,8 8,0 19 10 31 17 N 1021,5 0,0
18.10.2018 14:00:00 14,3 8,5 23 12 34 19 N 1021,6 0,0
18.10.2018 13:00:00 14,4 9,0 23 12 34 19 N 1021,6 0,0
18.10.2018 12:00:00 13,9 9,9 22 12 30 16 N 1021,3 0,0
18.10.2018 11:00:00 13,1 10,5 18 10 35 19 NNW 1020,9 0,0
18.10.2018 10:00:00 12,8 10,5 26 14 35 19 NNW 1020,5 0,0
18.10.2018 09:00:00 12,7 11,1 16 8 24 13 NNW 1020,0 0,0
18.10.2018 08:00:00 12,4 11,0 20 11 23 13 NNW 1019,4 0,0
18.10.2018 07:00:00 12,0 10,6 16 9 23 13 NNW 1018,8 0,0
18.10.2018 06:00:00 12,0 10,4 14 7 22 12 NNW 1018,5 0,0
18.10.2018 05:00:00 12,0 9,7 10 6 11 6 WNW 1018,6 0,0
18.10.2018 04:00:00 10,4 8,0 4 2 9 5 SW 1018,7 0,0
18.10.2018 03:00:00 10,7 7,8 5 3 12 6 SSW 1018,8 0,0
18.10.2018 02:00:00 11,1 8,7 8 5 12 7 SE 1018,8 0,0
18.10.2018 01:00:00 11,2 8,9 7 4 13 7 ESE 1019,2 0,0
18.10.2018 00:00:00 11,4 9,1 11 6 13 7 ESE 1019,3 0,0
17.10.2018 23:00:00 10,6 7,3 6 4 14 8 SSE 1019,7 0,0
17.10.2018 22:00:00 11,7 9,3 11 6 20 11 SE 1019,4 0,0
17.10.2018 21:00:00 12,1 10,0 13 7 20 11 SE 1019,3 0,0
17.10.2018 20:00:00 12,6 10,3 14 8 16 9 SE 1019,2 0,0
17.10.2018 19:00:00 12,6 10,1 11 6 17 9 SE 1019,2 0,0
17.10.2018 18:00:00 12,6 10,1 12 6 17 9 ESE 1019,0 0,0
17.10.2018 17:00:00 13,1 9,9 10 5 16 9 ESE 1019,1 0,0
17.10.2018 16:00:00 13,8 10,4 7 4 17 9 ESE 1019,3 0,0
17.10.2018 15:00:00 13,7 10,5 9 5 18 10 ESE 1019,4 0,0
17.10.2018 14:00:00 14,2 10,6 13 7 18 10 ESE 1019,3 0,0
17.10.2018 13:00:00 14,4 9,8 6 3 17 9 ESE 1019,7 0,0
17.10.2018 12:00:00 13,7 10,5 14 8 17 9 SE 1019,7 0,0

tt = Température de l'air
td = dewpoint
ff = Vitesse du vent
fx = gusts
dd = Direction du vent
ppp = reduced air pressure
rr = Quantités de précipitations

stations d'obs. à proximité